sensor_id;sensor_type;location;lat;lon;timestamp;pressure;altitude;pressure_sealevel;temperature;humidity
50650;BME280;36621;60.058;30.346;2023-02-15T04:14:26;102285.94;;;2.75;58.44
50650;BME280;36621;60.058;30.346;2023-02-15T04:22:16;102248.31;;;2.58;58.10
50650;BME280;36621;60.058;30.346;2023-02-15T04:30:08;102297.63;;;3.05;57.54
50650;BME280;36621;60.058;30.346;2023-02-15T04:37:42;102280.38;;;2.91;57.71
50650;BME280;36621;60.058;30.346;2023-02-15T04:45:17;102295.56;;;3.07;57.38
50650;BME280;36621;60.058;30.346;2023-02-15T04:52:59;102322.22;;;3.25;56.84
50650;BME280;36621;60.058;30.346;2023-02-15T05:00:32;102314.13;;;3.25;56.69
50650;BME280;36621;60.058;30.346;2023-02-15T05:08:04;102319.69;;;3.24;56.84
50650;BME280;36621;60.058;30.346;2023-02-15T05:15:36;102329.63;;;3.23;57.66
50650;BME280;36621;60.058;30.346;2023-02-15T05:23:09;102230.09;;;2.60;57.51
50650;BME280;36621;60.058;30.346;2023-02-15T05:30:41;102292.09;;;2.99;56.82
50650;BME280;36621;60.058;30.346;2023-02-15T05:38:14;102317.44;;;3.12;56.95
50650;BME280;36621;60.058;30.346;2023-02-15T05:45:46;102287.56;;;2.99;56.53
50650;BME280;36621;60.058;30.346;2023-02-15T05:53:18;102248.25;;;2.82;56.87
50650;BME280;36621;60.058;30.346;2023-02-15T06:00:51;102299.22;;;3.29;56.92
50650;BME280;36621;60.058;30.346;2023-02-15T06:08:23;102280.31;;;3.15;56.54
50650;BME280;36621;60.058;30.346;2023-02-15T06:15:56;102306.69;;;3.42;56.52
50650;BME280;36621;60.058;30.346;2023-02-15T06:23:28;102288.69;;;3.35;56.76
50650;BME280;36621;60.058;30.346;2023-02-15T06:31:04;102293.81;;;3.44;56.95
50650;BME280;36621;60.058;30.346;2023-02-15T06:38:36;102324.91;;;3.55;57.21
50650;BME280;36621;60.058;30.346;2023-02-15T06:46:09;102287.00;;;3.34;57.81
50650;BME280;36621;60.058;30.346;2023-02-15T17:23:24;102257.47;;;4.63;59.23
50650;BME280;36621;60.058;30.346;2023-02-15T17:30:58;102217.28;;;4.32;59.81
50650;BME280;36621;60.058;30.346;2023-02-15T17:39:20;102266.78;;;4.82;59.60
50650;BME280;36621;60.058;30.346;2023-02-15T17:46:54;102234.63;;;4.44;59.88
50650;BME280;36621;60.058;30.346;2023-02-15T17:54:31;102259.28;;;4.56;60.12
50650;BME280;36621;60.058;30.346;2023-02-15T18:02:21;102228.13;;;4.39;60.50
50650;BME280;36621;60.058;30.346;2023-02-15T18:10:14;102211.38;;;4.50;60.27
50650;BME280;36621;60.058;30.346;2023-02-15T18:18:07;102243.19;;;4.69;60.85
50650;BME280;36621;60.058;30.346;2023-02-15T18:25:41;102246.50;;;4.72;61.20
50650;BME280;36621;60.058;30.346;2023-02-15T18:33:24;102247.06;;;4.89;60.92
50650;BME280;36621;60.058;30.346;2023-02-15T18:41:05;102206.22;;;4.55;61.44
50650;BME280;36621;60.058;30.346;2023-02-15T18:48:39;102221.66;;;4.61;61.79
50650;BME280;36621;60.058;30.346;2023-02-15T18:56:20;102213.16;;;4.64;61.79
50650;BME280;36621;60.058;30.346;2023-02-15T19:04:07;102229.34;;;4.86;61.59
50650;BME280;36621;60.058;30.346;2023-02-15T19:11:53;102219.09;;;4.53;61.75
50650;BME280;36621;60.058;30.346;2023-02-15T19:19:26;102218.53;;;4.36;61.18
50650;BME280;36621;60.058;30.346;2023-02-15T19:26:59;102220.28;;;4.44;60.45
50650;BME280;36621;60.058;30.346;2023-02-15T19:34:33;102178.66;;;4.16;59.27
50650;BME280;36621;60.058;30.346;2023-02-15T19:42:13;102187.69;;;4.30;59.51
50650;BME280;36621;60.058;30.346;2023-02-15T19:49:45;102161.75;;;4.08;59.14
50650;BME280;36621;60.058;30.346;2023-02-15T19:57:21;102183.97;;;4.31;59.66
50650;BME280;36621;60.058;30.346;2023-02-15T20:04:56;102145.91;;;4.05;60.25
50650;BME280;36621;60.058;30.346;2023-02-15T20:12:36;102191.06;;;4.32;59.93
50650;BME280;36621;60.058;30.346;2023-02-15T20:20:09;102169.81;;;4.29;59.57
50650;BME280;36621;60.058;30.346;2023-02-15T20:27:47;102157.72;;;4.25;59.71
50650;BME280;36621;60.058;30.346;2023-02-15T20:35:24;102166.94;;;4.31;59.14
50650;BME280;36621;60.058;30.346;2023-02-15T20:43:00;102134.13;;;3.91;59.57
50650;BME280;36621;60.058;30.346;2023-02-15T20:50:36;102141.25;;;3.98;60.04
50650;BME280;36621;60.058;30.346;2023-02-15T20:58:19;102163.53;;;4.22;59.49
50650;BME280;36621;60.058;30.346;2023-02-15T21:05:54;102136.56;;;4.07;59.12
50650;BME280;36621;60.058;30.346;2023-02-15T21:13:30;102173.69;;;4.20;58.92
50650;BME280;36621;60.058;30.346;2023-02-15T21:21:05;102173.25;;;4.16;58.55
50650;BME280;36621;60.058;30.346;2023-02-15T21:28:38;102180.78;;;3.99;58.48
50650;BME280;36621;60.058;30.346;2023-02-15T21:36:17;102169.59;;;4.03;58.75
50650;BME280;36621;60.058;30.346;2023-02-15T21:43:51;102140.56;;;3.90;58.38
50650;BME280;36621;60.058;30.346;2023-02-15T21:51:46;102164.25;;;4.09;58.22
50650;BME280;36621;60.058;30.346;2023-02-15T21:59:37;102162.38;;;4.10;58.47
50650;BME280;36621;60.058;30.346;2023-02-15T22:07:15;102139.22;;;4.00;58.53
50650;BME280;36621;60.058;30.346;2023-02-15T22:14:52;102151.56;;;4.10;58.52
50650;BME280;36621;60.058;30.346;2023-02-15T22:22:24;102145.97;;;4.11;58.07
50650;BME280;36621;60.058;30.346;2023-02-15T22:29:57;102124.41;;;3.96;58.67
50650;BME280;36621;60.058;30.346;2023-02-15T22:37:29;102131.81;;;4.09;57.62
50650;BME280;36621;60.058;30.346;2023-02-15T22:45:01;102140.03;;;4.01;58.04
50650;BME280;36621;60.058;30.346;2023-02-15T22:52:35;102129.13;;;3.88;58.39
50650;BME280;36621;60.058;30.346;2023-02-15T23:00:14;102108.41;;;3.95;58.63
50650;BME280;36621;60.058;30.346;2023-02-15T23:07:48;102119.28;;;4.02;58.30
50650;BME280;36621;60.058;30.346;2023-02-15T23:15:21;102107.59;;;3.94;57.91
50650;BME280;36621;60.058;30.346;2023-02-15T23:22:53;102090.09;;;3.90;57.88
50650;BME280;36621;60.058;30.346;2023-02-15T23:30:27;102101.81;;;4.04;57.64
50650;BME280;36621;60.058;30.346;2023-02-15T23:37:59;102077.19;;;3.92;57.94
50650;BME280;36621;60.058;30.346;2023-02-15T23:45:34;102089.41;;;3.88;57.75
50650;BME280;36621;60.058;30.346;2023-02-15T23:53:08;102071.19;;;3.69;58.03
